aviador You're here:

LFBD Decoded Metar

BORDEAUX in FRANCE
Report Time2017-08-20 19:00:00
UTC Time2017-08-20 19:14:00
Flight Rules vfr VFR
Wind020° at 08 kt
W.Decomp.*RWY 05: 7.0 kt HW 3.9 kt LCW
RWY 11: 0.1 kt HW 8 kt LCW
W.Rank020° ranks 17
Current wind is above 020° avg. (6.0)
Visibility9999 m
Phenomena:N/A
Clouds:N/A
Expected CloudBase > 4,400 ft AGL from Temp-Dew spread
CeilingNone
Temp22°C (ISA +7)
Dew Point11°C (50% RH)
AAT19.5°C
QNH1024 hPa
Density Alt869 ft
Elevation200 ft
Report Wrong Elevation
Raw Report
LFBD 201900Z AUTO 02008KT CAVOK 22/11 Q1024 NOSIG=

Extra information for LFBD:More info

Metar Taf Metar & Taf Last 4 Metars F.Rules Stats Wind Profile Meteogram Temp Stats Airport Information Weather charts Add Link Nearby VenuesMetar ALERT Operation Metar Decoded Social comments